createdAt,value
2023-02-14T00:00:21.867Z,101152.16
2023-02-14T00:10:23.294Z,101159.50
2023-02-14T00:20:25.174Z,101162.75
2023-02-14T00:30:26.907Z,101165.28
2023-02-14T00:40:29.032Z,101151.03
2023-02-14T00:50:30.406Z,101149.47
2023-02-14T01:00:31.841Z,101132.56
2023-02-14T01:10:33.299Z,101149.75
2023-02-14T01:20:35.124Z,101147.50
2023-02-14T01:30:37.131Z,101133.09
2023-02-14T01:40:44.730Z,101139.06
2023-02-14T01:50:46.388Z,101144.69
2023-02-14T02:00:57.130Z,101134.28
2023-02-14T02:10:58.953Z,101119.44
2023-02-14T02:21:15.525Z,101105.47
2023-02-14T02:31:54.544Z,101098.84
2023-02-14T02:42:06.803Z,101108.88
2023-02-14T02:52:49.089Z,101102.22
2023-02-14T03:03:11.008Z,101099.84
2023-02-14T03:13:26.701Z,101093.06
2023-02-14T03:23:30.344Z,101090.66
2023-02-14T03:33:41.863Z,101099.84
2023-02-14T03:43:48.441Z,101101.41
2023-02-14T03:53:51.708Z,101082.66
2023-02-14T04:03:53.799Z,101090.69
2023-02-14T04:13:55.486Z,101083.78
2023-02-14T04:23:57.068Z,101091.22
2023-02-14T04:33:58.651Z,101083.19
2023-02-14T04:44:00.040Z,101084.16
2023-02-14T04:54:01.442Z,101071.78
2023-02-14T05:04:02.948Z,101071.91
2023-02-14T05:14:04.334Z,101056.13
2023-02-14T05:24:05.857Z,101052.47
2023-02-14T05:34:07.366Z,101046.38
2023-02-14T05:44:08.756Z,101037.19
2023-02-14T05:54:11.389Z,101044.31
2023-02-14T06:04:12.810Z,101047.84
2023-02-14T06:14:14.246Z,101052.72
2023-02-14T06:24:15.631Z,101063.84
2023-02-14T06:34:17.151Z,101065.56
2023-02-14T06:44:18.697Z,101068.22
2023-02-14T06:54:20.275Z,101075.75
2023-02-14T07:04:22.235Z,101074.88
2023-02-14T07:14:23.816Z,101070.31
2023-02-14T07:24:25.410Z,101078.19
2023-02-14T07:34:27.233Z,101087.44
2023-02-14T07:44:28.667Z,101084.25
2023-02-14T07:54:30.322Z,101081.44
2023-02-14T08:04:33.742Z,101085.25
2023-02-14T08:14:35.803Z,101081.69
2023-02-14T08:24:37.338Z,101078.69
2023-02-14T08:34:38.827Z,101079.66
2023-02-14T08:44:40.219Z,101081.66
2023-02-14T08:54:41.773Z,101077.63
2023-02-14T09:04:43.156Z,101086.47
2023-02-14T09:14:44.875Z,101074.16
2023-02-14T09:24:46.299Z,101069.25
2023-02-14T09:35:05.900Z,101057.47
2023-02-14T09:45:15.175Z,101060.66
2023-02-14T09:55:16.812Z,101044.97
2023-02-14T10:05:24.538Z,101047.09
2023-02-14T10:15:28.146Z,101037.75
2023-02-14T10:25:34.218Z,101045.50
2023-02-14T10:35:56.982Z,101036.22
2023-02-14T10:46:29.469Z,101025.09
2023-02-14T10:56:34.973Z,101014.47
2023-02-14T11:06:36.362Z,101007.22
2023-02-14T11:16:37.972Z,100987.66
2023-02-14T11:26:39.396Z,100978.72
2023-02-14T11:36:41.450Z,100964.56
2023-02-14T11:46:52.779Z,100964.38
2023-02-14T11:56:56.958Z,100957.94
2023-02-14T12:07:14.282Z,100936.19
2023-02-14T12:17:31.596Z,100916.84
2023-02-14T12:27:53.727Z,100909.09
2023-02-14T12:38:20.170Z,100895.97
2023-02-14T12:48:43.275Z,100882.00
2023-02-14T12:58:53.488Z,100874.06
2023-02-14T13:09:19.090Z,100859.78
2023-02-14T13:20:00.147Z,100841.25
2023-02-14T13:30:26.231Z,100823.75
2023-02-14T13:40:28.179Z,100809.13
2023-02-14T13:50:29.595Z,100814.13
2023-02-14T14:00:39.139Z,100810.13
2023-02-14T14:10:45.057Z,100804.22
2023-02-14T14:20:47.933Z,100796.66
2023-02-14T14:30:49.402Z,100792.78
2023-02-14T14:40:50.926Z,100776.44
2023-02-14T14:50:52.357Z,100769.03
2023-02-14T15:00:53.796Z,100760.63
2023-02-14T15:11:03.967Z,100749.50
2023-02-14T15:21:05.337Z,100739.06
2023-02-14T15:31:07.739Z,100730.78
2023-02-14T15:41:09.354Z,100730.47
2023-02-14T15:51:22.087Z,100733.78
2023-02-14T16:01:23.557Z,100741.66
2023-02-14T16:11:37.903Z,100736.28
2023-02-14T16:21:39.437Z,100737.75
2023-02-14T16:32:01.238Z,100754.38
2023-02-14T16:42:09.151Z,100754.88
2023-02-14T16:52:15.834Z,100757.22
2023-02-14T17:02:19.071Z,100759.69
2023-02-14T17:12:23.701Z,100769.06
2023-02-14T17:22:25.578Z,100774.09
2023-02-14T17:32:27.240Z,100763.00
2023-02-14T17:42:30.550Z,100776.06
2023-02-14T17:52:32.030Z,100776.72
2023-02-14T18:02:33.567Z,100789.72
2023-02-14T18:12:34.968Z,100788.69
2023-02-14T18:22:36.740Z,100776.91
2023-02-14T18:32:38.211Z,100776.84
2023-02-14T18:42:39.595Z,100763.03
2023-02-14T18:52:40.978Z,100746.25
2023-02-14T19:02:42.516Z,100743.34
2023-02-14T19:12:43.994Z,100735.75
2023-02-14T19:22:45.405Z,100735.69
2023-02-14T19:32:46.965Z,100722.91
2023-02-14T19:42:48.842Z,100711.81
2023-02-14T19:52:50.360Z,100704.38
2023-02-14T20:02:51.885Z,100702.34
2023-02-14T20:12:53.447Z,100693.91
2023-02-14T20:22:55.012Z,100692.84
2023-02-14T20:32:56.601Z,100703.19
2023-02-14T20:42:58.144Z,100682.88
2023-02-14T20:52:59.681Z,100678.16
2023-02-14T21:03:01.144Z,100678.06
2023-02-14T21:13:02.555Z,100679.75
2023-02-14T21:23:03.932Z,100674.53
2023-02-14T21:33:05.351Z,100687.56
2023-02-14T21:43:06.726Z,100689.84
2023-02-14T21:53:08.312Z,100677.44
2023-02-14T22:03:11.697Z,100674.09
2023-02-14T22:13:13.696Z,100666.34
2023-02-14T22:23:15.097Z,100648.75
2023-02-14T22:33:16.624Z,100651.88
2023-02-14T22:43:18.030Z,100641.75
2023-02-14T22:53:19.415Z,100635.16
2023-02-14T23:03:20.881Z,100630.84
2023-02-14T23:13:40.796Z,100626.94
2023-02-14T23:23:42.355Z,100635.78
2023-02-14T23:33:43.779Z,100631.59
2023-02-14T23:43:45.172Z,100623.16
2023-02-14T23:53:46.712Z,100621.09
